Airfield :
LOGIN :

Register | Disclaimer

   EN    FR    IT 

 










Legend :    VFR   Marginal VFR   IFR   Intensive IFR   Very Intensive IFR
Visi :
Ceiling :
>= 8 km
>= 3000ft
5 to 8 km
1000 to 3000 ft
1500m to 5 km
500 to 1000 ft
800 to 1500m
200 to 500 ft
< 800m
< 200 ft
Symbols :   Thunderstorms  Fog  Heavy snow  Heavy precipitations  Wind > 20 kt
SIGMETs :     Misc.  Thunderstorms  Icing  Turbulence  Mountain Waves  Volcanic Ashes






- Airport Elevation : 121 ft
- IATA code : HUY


EGNJ - Humberside

CURRENT METAR :
  • 190850Z 19010KT 9999 SCT010 BKN037 09/09 Q0996

EXPIRED METARs :
  • 190820Z 19008KT 9999 SCT012 BKN045 09/09 Q0996
  • 190750Z 19010KT 9999 SCT012 BKN045 09/08 Q0996
  • 190720Z 19009KT 9999 SCT012 BKN045 08/08 Q0996
  • 190650Z 19008KT 9999 FEW012 BKN045 08/08 Q0996
  • 190620Z 18009KT 9999 BKN013 08/08 Q0995

TAF TAF EGNJ
Valid from the 19 at 09:00 until the 19 at 18:00 UTC


190803Z 1909/1918 19012KT 9999 FEW015 SCT045
BECMG 1909/1912 25010KT
TEMPO 1909/1918 BKN013
PROB30
TEMPO 1909/1918 6000 SHRA BKN009
ATIS : +44 1652 682 020



MET'MAP, your aeronautical weather chart ! - Copyright ORBIFLY December 2007 - Disclaimer

ORBIFLY MET'MAP TEAM :

Programming & Development : Alexandra Zaïnal
Concept & Development : Baudouin d'Aumeries
Co-Development & Prog : Marc-Olivier Méhu
Technical & hardware support : Manuel Goepfert

Contact : metmap@orbifly.com




SOURCES & CREDITS :

   NOAA